Killadysert, Ireland
Current Conditions -  °F | °C
As of 6:00 PM on Friday 21 Nov 2014 (Local Time) from EINN Reporting Station
Broken Clouds Broken Clouds  
Wind Chill: 54°   Ceiling: 9000
Heat Index: 54°   Visibility: 6mi
Dew Point: 52°   Wind: 9mph
Humidity: 94%   Direction: 130°SE
Pressure: 29.56"   Gusts: NA
Location:  52.67°N, 9.11°W
Report Text: EINN 211800Z 13008KT 9999 FEW008 BKN090 12/11 Q1001 TEMPO 5000 BKN010
Loading
Personal Weather Stations






























Interactive Weather Map New forecast layout! Learn more

10-Day Weather Forecast

Advertisements
Track Severe Weather on mobile